Terminal Aerodrome Forecast
Issued by NWS

Home | Current Version | Previous Version | Text Only | Print | Product List | Glossary On
Versions: 1 2 3 4 5 6 7 8 9 10 11 12 13 14
047
FTPA31 PHFO 260544
TAFHOG
TAF
PHOG 260544Z 2606/2706 VRB06KT P6SM FEW030 SCT050
     FM262000 05017G26KT P6SM FEW030 FEW050
     FM270500 05009KT P6SM FEW025 FEW040
      AMD LTD TO VIS AND WIND 2609/2616=

USA.gov is the U.S. government's official web portal to all federal, state and local government web resources and services.